createdAt,value
2023-03-27T00:01:32.826Z,3.30
2023-03-27T00:04:00.803Z,3.22
2023-03-27T00:06:30.102Z,3.38
2023-03-27T00:08:58.186Z,3.15
2023-03-27T00:11:26.207Z,3.80
2023-03-27T00:13:54.926Z,3.15
2023-03-27T00:16:23.867Z,3.30
2023-03-27T00:18:52.799Z,3.70
2023-03-27T00:21:20.727Z,3.30
2023-03-27T00:23:49.969Z,3.10
2023-03-27T00:26:17.915Z,3.50
2023-03-27T00:28:45.795Z,3.20
2023-03-27T00:31:14.188Z,3.28
2023-03-27T00:33:42.869Z,3.20
2023-03-27T00:36:11.829Z,3.40
2023-03-27T00:38:40.479Z,3.30
2023-03-27T00:41:10.154Z,3.30
2023-03-27T00:43:41.916Z,3.13
2023-03-27T00:46:21.289Z,3.35
2023-03-27T00:48:51.298Z,3.35
2023-03-27T00:51:19.491Z,3.38
2023-03-27T00:53:48.366Z,3.55
2023-03-27T00:56:18.031Z,3.72
2023-03-27T00:58:47.728Z,3.40
2023-03-27T01:01:16.446Z,3.63
2023-03-27T01:03:47.137Z,3.40
2023-03-27T01:06:16.951Z,3.40
2023-03-27T01:08:46.667Z,3.47
2023-03-27T01:11:21.905Z,3.75
2023-03-27T01:14:01.827Z,3.60
2023-03-27T01:16:31.371Z,3.50
2023-03-27T01:19:03.817Z,3.60
2023-03-27T01:21:58.470Z,3.55
2023-03-27T01:24:44.910Z,3.50
2023-03-27T01:27:18.477Z,3.67
2023-03-27T01:30:01.548Z,3.58
2023-03-27T01:33:06.840Z,3.80
2023-03-27T01:36:04.262Z,3.60
2023-03-27T01:39:07.406Z,3.63
2023-03-27T01:41:37.083Z,3.33
2023-03-27T01:44:05.756Z,3.45
2023-03-27T01:46:35.376Z,3.75
2023-03-27T01:49:05.582Z,3.70
2023-03-27T01:51:35.436Z,3.80
2023-03-27T01:54:05.883Z,3.65
2023-03-27T01:56:37.493Z,4.07
2023-03-27T01:59:08.153Z,3.58
2023-03-27T02:01:37.534Z,3.78
2023-03-27T02:04:06.703Z,3.60
2023-03-27T02:06:36.416Z,3.70
2023-03-27T02:09:07.519Z,3.60
2023-03-27T02:11:37.635Z,3.90
2023-03-27T02:14:06.723Z,3.78
2023-03-27T02:16:35.181Z,3.83
2023-03-27T02:19:05.631Z,3.67
2023-03-27T02:21:33.776Z,3.63
2023-03-27T02:24:06.204Z,3.83
2023-03-27T02:26:34.513Z,4.15
2023-03-27T02:29:27.738Z,4.03
2023-03-27T02:32:03.183Z,3.72
2023-03-27T02:34:58.705Z,3.78
2023-03-27T02:37:32.027Z,4.00
2023-03-27T02:40:39.933Z,3.80
2023-03-27T02:43:43.706Z,3.75
2023-03-27T02:46:18.897Z,3.67
2023-03-27T02:48:47.361Z,3.85
2023-03-27T02:51:16.480Z,3.50
2023-03-27T02:53:46.336Z,3.70
2023-03-27T02:56:15.839Z,3.88
2023-03-27T02:58:45.983Z,3.85
2023-03-27T03:01:30.723Z,3.75
2023-03-27T03:04:11.134Z,3.58
2023-03-27T03:06:50.380Z,3.90
2023-03-27T03:09:19.067Z,3.83
2023-03-27T03:11:49.384Z,3.72
2023-03-27T03:14:18.421Z,3.42
2023-03-27T03:16:46.643Z,4.20
2023-03-27T03:19:14.757Z,3.90
2023-03-27T03:21:43.258Z,3.72
2023-03-27T03:24:13.008Z,4.00
2023-03-27T03:26:41.017Z,3.72
2023-03-27T03:29:12.802Z,3.80
2023-03-27T03:31:46.056Z,4.00
2023-03-27T03:34:16.158Z,4.10
2023-03-27T03:36:44.792Z,3.60
2023-03-27T03:39:13.144Z,3.80
2023-03-27T03:41:42.110Z,3.80
2023-03-27T03:44:11.474Z,3.90
2023-03-27T03:46:40.632Z,3.90
2023-03-27T03:49:08.696Z,3.78
2023-03-27T03:51:36.755Z,3.75
2023-03-27T03:54:05.582Z,4.00
2023-03-27T03:56:34.446Z,4.18
2023-03-27T03:59:02.844Z,4.15
2023-03-27T04:01:33.866Z,4.10
2023-03-27T04:04:03.546Z,4.38
2023-03-27T04:06:49.597Z,4.32
2023-03-27T04:09:17.597Z,3.97
2023-03-27T04:11:56.672Z,4.47
2023-03-27T04:14:50.439Z,4.30
2023-03-27T04:17:50.798Z,3.97
2023-03-27T04:20:19.325Z,4.05
2023-03-27T04:22:48.621Z,4.05
2023-03-27T04:25:18.220Z,4.25
2023-03-27T04:27:46.640Z,4.50
2023-03-27T04:30:24.796Z,4.10
2023-03-27T04:33:18.261Z,4.28
2023-03-27T04:36:05.328Z,4.13
2023-03-27T04:38:43.135Z,4.15
2023-03-27T04:41:12.429Z,4.18
2023-03-27T04:43:41.716Z,4.18
2023-03-27T04:46:09.714Z,3.97
2023-03-27T04:48:39.934Z,4.13
2023-03-27T04:51:20.060Z,4.22
2023-03-27T04:53:48.941Z,3.92
2023-03-27T04:56:17.477Z,3.95
2023-03-27T04:58:46.776Z,4.00
2023-03-27T05:01:17.799Z,3.65
2023-03-27T05:03:53.623Z,4.38
2023-03-27T05:06:54.223Z,4.10
2023-03-27T05:09:22.488Z,3.83
2023-03-27T05:11:50.622Z,4.00
2023-03-27T05:14:20.297Z,4.40
2023-03-27T05:16:49.959Z,3.90
2023-03-27T05:19:20.392Z,4.10
2023-03-27T05:21:57.160Z,3.95
2023-03-27T05:24:25.138Z,4.25
2023-03-27T05:26:54.424Z,4.03
2023-03-27T05:29:22.455Z,4.38
2023-03-27T05:32:01.180Z,9.63
2023-03-27T05:34:34.634Z,11.55
2023-03-27T05:37:06.805Z,14.70
2023-03-27T05:39:46.187Z,15.40
2023-03-27T05:42:14.998Z,16.40
2023-03-27T05:44:43.958Z,20.58
2023-03-27T05:47:12.801Z,19.48
2023-03-27T05:49:42.292Z,21.65
2023-03-27T05:52:14.109Z,20.40
2023-03-27T05:54:42.214Z,20.48
2023-03-27T05:57:11.821Z,19.90
2023-03-27T05:59:41.399Z,21.38
2023-03-27T06:02:21.926Z,22.00
2023-03-27T06:05:05.832Z,19.80
2023-03-27T06:07:36.967Z,18.45
2023-03-27T06:10:13.566Z,19.13
2023-03-27T06:13:21.706Z,18.05
2023-03-27T06:15:59.922Z,19.98
2023-03-27T06:18:50.590Z,18.73
2023-03-27T06:21:22.590Z,18.98
2023-03-27T06:23:57.526Z,18.92
2023-03-27T06:26:27.880Z,17.83
2023-03-27T06:28:57.154Z,17.02
2023-03-27T06:31:27.424Z,16.58
2023-03-27T06:34:21.595Z,16.98
2023-03-27T06:37:00.003Z,16.48
2023-03-27T06:39:28.991Z,15.77
2023-03-27T06:41:58.050Z,15.65
2023-03-27T06:44:36.777Z,15.52
2023-03-27T06:47:14.156Z,15.52
2023-03-27T06:50:00.654Z,16.02
2023-03-27T06:52:31.227Z,15.57
2023-03-27T06:55:14.626Z,15.10
2023-03-27T06:57:51.096Z,15.45
2023-03-27T07:00:24.384Z,13.07
2023-03-27T07:03:15.668Z,11.85
2023-03-27T07:06:02.238Z,11.48
2023-03-27T07:08:38.946Z,12.27
2023-03-27T07:11:12.253Z,10.63
2023-03-27T07:13:46.471Z,10.95
2023-03-27T07:16:22.552Z,10.57
2023-03-27T07:18:50.816Z,10.82
2023-03-27T07:21:18.761Z,11.05
2023-03-27T07:23:48.035Z,10.40
2023-03-27T07:26:20.656Z,9.98
2023-03-27T07:28:54.946Z,9.93
2023-03-27T07:33:55.201Z,10.25
2023-03-27T07:36:32.086Z,9.63
2023-03-27T07:39:09.128Z,10.32
2023-03-27T07:41:37.101Z,10.18
2023-03-27T07:44:19.160Z,9.45
2023-03-27T07:46:57.250Z,8.32
2023-03-27T07:49:39.517Z,8.77
2023-03-27T07:52:09.847Z,9.15
2023-03-27T07:54:48.627Z,8.82
2023-03-27T07:57:18.733Z,8.55
2023-03-27T07:59:49.616Z,11.02
2023-03-27T08:02:25.064Z,14.13
2023-03-27T08:04:55.147Z,19.17
2023-03-27T08:07:25.045Z,17.83
2023-03-27T08:09:57.608Z,22.23
2023-03-27T08:12:26.142Z,21.75
2023-03-27T08:15:00.721Z,20.55
2023-03-27T08:17:32.453Z,20.95
2023-03-27T08:20:02.086Z,19.08
2023-03-27T08:22:33.493Z,17.35
2023-03-27T08:25:37.874Z,18.52
2023-03-27T08:28:09.059Z,16.30
2023-03-27T08:30:37.450Z,17.75
2023-03-27T08:33:05.758Z,16.83
2023-03-27T08:35:33.796Z,15.55
2023-03-27T08:38:03.860Z,16.05
2023-03-27T08:40:54.007Z,15.18
2023-03-27T08:43:28.240Z,14.82
2023-03-27T08:45:59.523Z,15.20
2023-03-27T08:48:30.639Z,14.57
2023-03-27T08:51:00.187Z,13.80
2023-03-27T08:53:32.968Z,14.07
2023-03-27T08:56:04.994Z,14.02
2023-03-27T08:58:40.001Z,13.43
2023-03-27T09:01:20.318Z,13.25
2023-03-27T09:03:50.950Z,13.43
2023-03-27T09:06:25.097Z,13.55
2023-03-27T09:08:58.263Z,13.02
2023-03-27T09:11:33.918Z,13.80
2023-03-27T09:14:07.437Z,12.07
2023-03-27T09:16:36.727Z,12.85
2023-03-27T09:19:10.277Z,12.35
2023-03-27T09:21:41.191Z,12.38
2023-03-27T09:24:14.627Z,11.27
2023-03-27T09:27:12.061Z,11.75
2023-03-27T09:29:49.391Z,11.32
2023-03-27T09:32:38.208Z,12.18
2023-03-27T09:35:06.794Z,11.93
2023-03-27T09:37:37.004Z,11.82
2023-03-27T09:40:12.846Z,11.27
2023-03-27T09:42:42.133Z,10.90
2023-03-27T09:45:11.957Z,10.52
2023-03-27T09:47:59.082Z,10.82
2023-03-27T09:50:32.421Z,10.93
2023-03-27T09:53:11.242Z,10.68
2023-03-27T09:55:52.781Z,10.52
2023-03-27T09:58:35.413Z,10.30
2023-03-27T10:01:16.793Z,10.50
2023-03-27T10:03:51.335Z,10.25
2023-03-27T10:06:27.147Z,9.85
2023-03-27T10:09:07.207Z,9.20
2023-03-27T10:11:40.100Z,10.32
2023-03-27T10:14:14.232Z,9.25
2023-03-27T10:16:42.468Z,9.52
2023-03-27T10:19:22.117Z,9.27
2023-03-27T10:21:51.491Z,9.50
2023-03-27T10:24:28.727Z,8.50
2023-03-27T10:27:19.992Z,7.38
2023-03-27T10:30:27.689Z,8.30
2023-03-27T10:33:02.542Z,7.90
2023-03-27T10:35:50.804Z,8.43
2023-03-27T10:38:24.358Z,7.72
2023-03-27T10:41:04.324Z,7.43
2023-03-27T10:43:41.587Z,7.05
2023-03-27T10:46:13.650Z,7.40
2023-03-27T10:48:47.262Z,6.75
2023-03-27T10:51:33.111Z,6.72
2023-03-27T10:54:14.136Z,6.20
2023-03-27T10:56:54.457Z,5.97
2023-03-27T10:59:38.354Z,6.00
2023-03-27T11:02:16.611Z,6.20
2023-03-27T11:04:47.559Z,6.50
2023-03-27T11:07:20.641Z,5.45
2023-03-27T11:10:00.550Z,5.82
2023-03-27T11:12:33.663Z,5.57
2023-03-27T11:15:04.370Z,6.18
2023-03-27T11:17:40.171Z,5.60
2023-03-27T11:20:21.424Z,5.63
2023-03-27T11:23:15.019Z,6.00
2023-03-27T11:26:03.548Z,5.63
2023-03-27T11:28:33.944Z,5.65
2023-03-27T11:31:13.133Z,5.63
2023-03-27T11:33:47.407Z,4.82
2023-03-27T11:36:33.958Z,5.72
2023-03-27T11:39:20.945Z,5.38
2023-03-27T11:41:52.570Z,5.00
2023-03-27T11:44:22.059Z,4.72
2023-03-27T11:47:18.773Z,4.68
2023-03-27T11:49:56.385Z,4.97
2023-03-27T11:52:30.883Z,4.60
2023-03-27T11:55:06.876Z,4.70
2023-03-27T11:57:43.376Z,4.35
2023-03-27T12:00:29.635Z,4.35
2023-03-27T12:03:33.682Z,4.30
2023-03-27T12:06:09.241Z,4.30
2023-03-27T12:09:07.079Z,4.00
2023-03-27T12:11:48.794Z,4.15
2023-03-27T12:14:40.438Z,4.13
2023-03-27T12:17:13.894Z,4.10
2023-03-27T12:20:58.884Z,4.20
2023-03-27T12:23:47.114Z,4.10
2023-03-27T12:26:49.090Z,4.40
2023-03-27T12:29:40.067Z,4.07
2023-03-27T12:32:18.081Z,3.72
2023-03-27T12:34:53.016Z,3.83
2023-03-27T12:37:24.579Z,3.70
2023-03-27T12:39:54.883Z,3.80
2023-03-27T12:42:43.832Z,3.88
2023-03-27T12:45:17.945Z,3.78
2023-03-27T12:48:16.796Z,4.05
2023-03-27T12:50:47.282Z,3.72
2023-03-27T12:53:21.767Z,3.88
2023-03-27T12:55:51.554Z,3.92
2023-03-27T12:58:34.300Z,3.95
2023-03-27T13:01:12.683Z,3.88
2023-03-27T13:04:00.333Z,3.65
2023-03-27T13:06:33.145Z,3.72
2023-03-27T13:09:22.324Z,3.58
2023-03-27T13:12:12.738Z,3.35
2023-03-27T13:14:55.869Z,3.50
2023-03-27T13:17:44.557Z,3.53
2023-03-27T13:20:19.805Z,2.97
2023-03-27T13:23:00.754Z,3.40
2023-03-27T13:25:54.744Z,3.38
2023-03-27T13:28:37.773Z,3.10
2023-03-27T13:31:49.822Z,3.30
2023-03-27T13:34:38.579Z,3.30
2023-03-27T13:37:39.230Z,3.10
2023-03-27T13:40:20.525Z,3.10
2023-03-27T13:42:51.543Z,3.40
2023-03-27T13:45:25.073Z,3.30
2023-03-27T13:48:50.501Z,3.40
2023-03-27T13:51:27.083Z,3.03
2023-03-27T13:54:03.866Z,3.25
2023-03-27T13:56:56.869Z,3.17
2023-03-27T14:00:13.700Z,2.92
2023-03-27T14:03:05.410Z,3.45
2023-03-27T14:06:27.783Z,3.10
2023-03-27T14:08:59.884Z,2.97
2023-03-27T14:11:44.541Z,2.90
2023-03-27T14:14:28.242Z,2.78
2023-03-27T14:17:02.942Z,3.22
2023-03-27T14:19:56.004Z,3.13
2023-03-27T14:22:30.187Z,2.53
2023-03-27T14:25:00.260Z,2.80
2023-03-27T14:27:38.638Z,2.88
2023-03-27T14:30:15.677Z,2.50
2023-03-27T14:32:49.112Z,2.75
2023-03-27T14:35:34.352Z,2.55
2023-03-27T14:38:07.440Z,2.63
2023-03-27T14:40:43.580Z,2.75
2023-03-27T14:43:14.461Z,2.60
2023-03-27T14:45:42.462Z,2.40
2023-03-27T14:48:14.750Z,2.50
2023-03-27T14:50:48.155Z,2.53
2023-03-27T14:53:22.047Z,2.50
2023-03-27T14:56:10.554Z,2.33
2023-03-27T14:59:16.328Z,2.58
2023-03-27T15:01:52.205Z,2.50
2023-03-27T15:04:20.161Z,2.70
2023-03-27T15:06:55.914Z,2.60
2023-03-27T15:09:47.274Z,2.35
2023-03-27T15:12:41.518Z,2.47
2023-03-27T15:15:25.248Z,2.30
2023-03-27T15:17:55.783Z,2.50
2023-03-27T15:20:24.842Z,2.53
2023-03-27T15:22:55.953Z,2.40
2023-03-27T15:25:27.437Z,2.20
2023-03-27T15:27:56.382Z,2.42
2023-03-27T15:30:26.818Z,2.00
2023-03-27T15:32:55.688Z,2.25
2023-03-27T15:35:27.060Z,2.25
2023-03-27T15:37:57.115Z,2.00
2023-03-27T15:40:36.726Z,2.10
2023-03-27T15:43:06.744Z,2.00
2023-03-27T15:45:36.846Z,2.20
2023-03-27T15:48:06.604Z,2.10
2023-03-27T15:50:34.624Z,2.00
2023-03-27T15:53:03.863Z,2.53
2023-03-27T15:55:36.857Z,2.42
2023-03-27T15:58:20.437Z,2.10
2023-03-27T16:00:48.997Z,2.13
2023-03-27T16:03:19.483Z,2.08
2023-03-27T16:05:47.693Z,2.00
2023-03-27T16:08:28.111Z,2.35
2023-03-27T16:10:56.704Z,2.90
2023-03-27T16:13:29.562Z,3.60
2023-03-27T16:15:58.928Z,5.40
2023-03-27T16:18:29.050Z,4.85
2023-03-27T16:21:06.949Z,5.35
2023-03-27T16:23:37.233Z,5.10
2023-03-27T16:26:06.178Z,5.00
2023-03-27T16:28:34.086Z,4.88
2023-03-27T16:31:11.362Z,4.80
2023-03-27T16:33:42.716Z,5.60
2023-03-27T16:36:12.458Z,4.93
2023-03-27T16:38:42.409Z,5.60
2023-03-27T16:41:13.239Z,6.13
2023-03-27T16:43:41.417Z,6.25
2023-03-27T16:46:12.621Z,6.40
2023-03-27T16:48:40.725Z,6.40
2023-03-27T16:51:08.716Z,6.13
2023-03-27T16:53:36.682Z,6.75
2023-03-27T16:56:06.472Z,6.28
2023-03-27T16:58:34.387Z,6.40
2023-03-27T17:01:02.547Z,6.40
2023-03-27T17:03:31.073Z,6.53
2023-03-27T17:06:00.799Z,6.03
2023-03-27T17:08:30.239Z,6.00
2023-03-27T17:11:02.696Z,7.10
2023-03-27T17:13:32.222Z,6.90
2023-03-27T17:16:00.473Z,6.65
2023-03-27T17:18:28.537Z,6.65
2023-03-27T17:20:56.473Z,8.00
2023-03-27T17:23:24.389Z,7.53
2023-03-27T17:25:52.298Z,8.75
2023-03-27T17:28:20.202Z,8.13
2023-03-27T17:31:01.039Z,9.15
2023-03-27T17:33:32.431Z,9.75
2023-03-27T17:36:00.686Z,9.15
2023-03-27T17:38:29.171Z,8.50
2023-03-27T17:40:57.065Z,8.23
2023-03-27T17:43:25.086Z,8.77
2023-03-27T17:45:54.847Z,8.77
2023-03-27T17:48:22.865Z,9.35
2023-03-27T17:51:01.521Z,8.63
2023-03-27T17:53:35.729Z,8.93
2023-03-27T17:56:03.701Z,9.77
2023-03-27T17:58:34.044Z,8.93
2023-03-27T18:01:15.704Z,9.18
2023-03-27T18:03:43.870Z,8.27
2023-03-27T18:06:11.822Z,8.75
2023-03-27T18:08:39.749Z,8.82
2023-03-27T18:11:10.645Z,9.48
2023-03-27T18:13:38.766Z,8.98
2023-03-27T18:16:10.532Z,9.60
2023-03-27T18:18:38.926Z,8.98
2023-03-27T18:21:08.660Z,8.25
2023-03-27T18:23:38.393Z,8.32
2023-03-27T18:26:14.250Z,8.05
2023-03-27T18:28:42.168Z,7.95
2023-03-27T18:31:12.272Z,7.95
2023-03-27T18:33:40.302Z,7.47
2023-03-27T18:36:11.480Z,8.38
2023-03-27T18:38:40.148Z,8.40
2023-03-27T18:41:08.350Z,7.57
2023-03-27T18:43:36.496Z,8.40
2023-03-27T18:46:06.230Z,7.43
2023-03-27T18:48:35.734Z,7.85
2023-03-27T18:51:04.797Z,8.05
2023-03-27T18:53:32.973Z,7.63
2023-03-27T18:56:01.329Z,8.32
2023-03-27T18:58:29.948Z,7.50
2023-03-27T19:00:58.101Z,7.63
2023-03-27T19:03:29.120Z,7.55
2023-03-27T19:06:01.148Z,7.70
2023-03-27T19:08:29.105Z,7.25
2023-03-27T19:10:57.690Z,7.10
2023-03-27T19:13:44.197Z,7.50
2023-03-27T19:16:32.529Z,6.82
2023-03-27T19:19:18.836Z,7.50
2023-03-27T19:22:09.040Z,6.80
2023-03-27T19:24:41.778Z,6.82
2023-03-27T19:27:23.717Z,7.18
2023-03-27T19:29:52.878Z,6.70
2023-03-27T19:32:20.899Z,7.32
2023-03-27T19:34:50.326Z,6.20
2023-03-27T19:37:19.626Z,6.43
2023-03-27T19:39:47.620Z,7.03
2023-03-27T19:42:15.814Z,6.40
2023-03-27T19:44:43.957Z,6.50
2023-03-27T19:47:11.922Z,6.10
2023-03-27T19:49:40.996Z,7.03
2023-03-27T19:52:33.261Z,6.10
2023-03-27T19:55:01.215Z,6.38
2023-03-27T19:57:29.161Z,6.78
2023-03-27T19:59:57.055Z,7.82
2023-03-27T20:02:25.076Z,6.45
2023-03-27T20:04:53.150Z,6.60
2023-03-27T20:07:21.106Z,7.95
2023-03-27T20:09:50.457Z,7.32
2023-03-27T20:12:19.829Z,6.90
2023-03-27T20:14:58.131Z,6.65
2023-03-27T20:17:35.361Z,6.68
2023-03-27T20:20:05.779Z,6.55
2023-03-27T20:22:38.636Z,5.95
2023-03-27T20:25:12.610Z,6.25
2023-03-27T20:27:40.924Z,6.88
2023-03-27T20:30:14.032Z,6.20
2023-03-27T20:32:42.305Z,6.20
2023-03-27T20:35:23.060Z,6.95
2023-03-27T20:37:56.294Z,6.10
2023-03-27T20:40:26.815Z,5.88
2023-03-27T20:43:03.608Z,5.47
2023-03-27T20:45:31.868Z,5.50
2023-03-27T20:48:03.839Z,5.32
2023-03-27T20:50:35.181Z,5.35
2023-03-27T20:53:04.597Z,5.80
2023-03-27T20:55:37.536Z,5.45
2023-03-27T20:58:09.424Z,5.25
2023-03-27T21:00:37.378Z,5.40
2023-03-27T21:03:05.707Z,5.22
2023-03-27T21:05:34.609Z,5.43
2023-03-27T21:08:03.453Z,4.90
2023-03-27T21:10:31.428Z,4.57
2023-03-27T21:13:00.726Z,4.80
2023-03-27T21:15:28.636Z,4.70
2023-03-27T21:17:56.606Z,4.78
2023-03-27T21:20:27.180Z,4.72
2023-03-27T21:22:55.396Z,4.30
2023-03-27T21:25:23.427Z,4.18
2023-03-27T21:27:59.898Z,4.65
2023-03-27T21:30:46.460Z,4.20
2023-03-27T21:33:15.897Z,5.13
2023-03-27T21:35:45.541Z,4.18
2023-03-27T21:38:13.599Z,4.10
2023-03-27T21:40:41.801Z,4.10
2023-03-27T21:43:11.415Z,4.53
2023-03-27T21:45:39.348Z,4.30
2023-03-27T21:48:10.351Z,3.80
2023-03-27T21:50:38.428Z,4.25
2023-03-27T21:53:06.377Z,4.30
2023-03-27T21:55:34.753Z,4.55
2023-03-27T21:58:02.626Z,4.07
2023-03-27T22:00:31.911Z,3.90
2023-03-27T22:03:00.018Z,3.90
2023-03-27T22:05:28.001Z,4.43
2023-03-27T22:07:57.613Z,4.20
2023-03-27T22:10:25.719Z,3.90
2023-03-27T22:12:53.633Z,4.03
2023-03-27T22:15:21.594Z,4.22
2023-03-27T22:17:50.957Z,3.95
2023-03-27T22:20:19.012Z,4.32
2023-03-27T22:22:48.410Z,3.90
2023-03-27T22:25:16.461Z,3.95
2023-03-27T22:27:44.873Z,4.07
2023-03-27T22:30:13.101Z,3.47
2023-03-27T22:32:41.916Z,3.83
2023-03-27T22:35:12.074Z,3.80
2023-03-27T22:37:40.134Z,3.70
2023-03-27T22:40:09.087Z,3.92
2023-03-27T22:42:37.520Z,3.78
2023-03-27T22:45:05.735Z,3.70
2023-03-27T22:47:33.669Z,3.63
2023-03-27T22:50:02.483Z,3.60
2023-03-27T22:52:31.767Z,3.80
2023-03-27T22:54:59.678Z,3.40
2023-03-27T22:57:27.557Z,3.50
2023-03-27T22:59:55.439Z,3.67
2023-03-27T23:02:23.493Z,3.42
2023-03-27T23:04:51.446Z,3.70
2023-03-27T23:07:19.389Z,3.78
2023-03-27T23:09:48.652Z,3.78
2023-03-27T23:12:16.747Z,3.83
2023-03-27T23:14:44.607Z,3.53
2023-03-27T23:17:12.510Z,3.70
2023-03-27T23:19:40.401Z,3.90
2023-03-27T23:22:08.301Z,3.60
2023-03-27T23:24:36.222Z,3.60
2023-03-27T23:27:08.275Z,3.97
2023-03-27T23:29:36.190Z,3.63
2023-03-27T23:32:04.196Z,3.35
2023-03-27T23:34:32.157Z,3.53
2023-03-27T23:37:00.203Z,3.35
2023-03-27T23:39:28.175Z,3.80
2023-03-27T23:41:56.079Z,3.72
2023-03-27T23:44:25.297Z,3.83
2023-03-27T23:46:53.235Z,3.95
2023-03-27T23:49:21.110Z,3.90
2023-03-27T23:51:49.018Z,3.58
2023-03-27T23:54:16.919Z,3.60
2023-03-27T23:56:44.833Z,3.63
2023-03-27T23:59:13.087Z,3.60
